createdAt,value
2018-03-21T00:00:03.489Z,-2.30
2018-03-21T00:02:30.924Z,-2.30
2018-03-21T00:04:58.363Z,-2.30
2018-03-21T00:07:25.809Z,-2.40
2018-03-21T00:09:54.056Z,-2.20
2018-03-21T00:12:21.495Z,-2.30
2018-03-21T00:14:48.935Z,-2.30
2018-03-21T00:17:16.392Z,-2.20
2018-03-21T00:19:43.834Z,-2.20
2018-03-21T00:22:11.279Z,-2.30
2018-03-21T00:24:38.733Z,-2.40
2018-03-21T00:27:06.171Z,-2.50
2018-03-21T00:29:34.378Z,-2.70
2018-03-21T00:32:01.811Z,-2.70
2018-03-21T00:34:30.035Z,-2.80
2018-03-21T00:36:57.471Z,-2.80
2018-03-21T00:39:24.922Z,-2.70
2018-03-21T00:41:52.363Z,-2.80
2018-03-21T00:44:19.803Z,-2.90
2018-03-21T00:46:48.029Z,-3.10
2018-03-21T00:49:15.459Z,-3.20
2018-03-21T00:51:42.899Z,-3.10
2018-03-21T00:54:11.111Z,-3.20
2018-03-21T00:56:38.590Z,-3.20
2018-03-21T00:59:06.027Z,-3.20
2018-03-21T01:01:33.464Z,-3.20
2018-03-21T01:04:00.925Z,-3.10
2018-03-21T01:06:28.359Z,-3.10
2018-03-21T01:08:56.564Z,-3.30
2018-03-21T01:11:24.009Z,-3.30
2018-03-21T01:13:51.451Z,-3.40
2018-03-21T01:16:18.921Z,-3.60
2018-03-21T01:18:46.380Z,-3.60
2018-03-21T01:21:13.836Z,-3.60
2018-03-21T01:23:41.315Z,-3.70
2018-03-21T01:26:08.764Z,-3.60
2018-03-21T01:28:36.222Z,-3.50
2018-03-21T01:31:03.655Z,-3.60
2018-03-21T01:33:31.114Z,-3.80
2018-03-21T01:35:59.315Z,-3.80
2018-03-21T01:38:26.765Z,-3.90
2018-03-21T01:40:54.195Z,-3.90
2018-03-21T01:43:21.639Z,-3.90
2018-03-21T01:45:49.852Z,-4.00
2018-03-21T01:48:17.308Z,-4.00
2018-03-21T01:50:44.739Z,-4.00
2018-03-21T01:53:12.177Z,-4.00
2018-03-21T01:55:40.392Z,-4.10
2018-03-21T01:58:07.845Z,-4.10
2018-03-21T02:00:35.287Z,-4.20
2018-03-21T02:03:02.746Z,-4.10
2018-03-21T02:05:30.181Z,-4.10
2018-03-21T02:07:58.397Z,-4.20
2018-03-21T02:10:25.846Z,-4.20
2018-03-21T02:12:53.287Z,-4.20
2018-03-21T02:15:20.738Z,-4.10
2018-03-21T02:17:48.951Z,-4.30
2018-03-21T02:20:16.410Z,-4.30
2018-03-21T02:22:43.835Z,-4.30
2018-03-21T02:25:11.279Z,-4.40
2018-03-21T02:27:40.208Z,-4.50
2018-03-21T02:30:07.657Z,-4.50
2018-03-21T02:32:35.083Z,-4.50
2018-03-21T02:35:03.304Z,-4.50
2018-03-21T02:37:30.746Z,-4.50
2018-03-21T02:39:58.183Z,-4.50
2018-03-21T02:42:25.626Z,-4.40
2018-03-21T02:44:53.848Z,-4.50
2018-03-21T02:47:21.295Z,-4.50
2018-03-21T02:49:48.735Z,-4.50
2018-03-21T02:52:16.188Z,-4.50
2018-03-21T02:54:43.628Z,-4.50
2018-03-21T02:57:11.839Z,-4.60
2018-03-21T02:59:39.279Z,-4.60
2018-03-21T03:02:06.724Z,-4.80
2018-03-21T03:04:34.937Z,-4.70
2018-03-21T03:07:02.377Z,-4.70
2018-03-21T03:09:29.857Z,-4.60
2018-03-21T03:11:57.290Z,-4.60
2018-03-21T03:14:24.736Z,-4.70
2018-03-21T03:16:52.183Z,-4.70
2018-03-21T03:19:20.391Z,-4.90
2018-03-21T03:21:47.855Z,-4.90
2018-03-21T03:24:15.294Z,-4.90
2018-03-21T03:26:42.736Z,-4.90
2018-03-21T03:29:10.194Z,-4.80
2018-03-21T03:31:37.636Z,-4.80
2018-03-21T03:34:05.843Z,-4.80
2018-03-21T03:36:33.283Z,-4.80
2018-03-21T03:39:00.721Z,-4.90
2018-03-21T03:41:28.951Z,-4.90
2018-03-21T03:43:56.408Z,-4.90
2018-03-21T03:46:23.833Z,-4.90
2018-03-21T03:48:51.295Z,-5.00
2018-03-21T03:51:18.747Z,-5.00
2018-03-21T03:53:46.179Z,-5.10
2018-03-21T03:56:14.400Z,-4.90
2018-03-21T03:58:41.876Z,-4.90
2018-03-21T04:01:09.319Z,-4.90
2018-03-21T04:03:36.775Z,-5.10
2018-03-21T04:06:04.215Z,-5.10
2018-03-21T04:08:31.668Z,-5.10
2018-03-21T04:10:59.131Z,-5.00
2018-03-21T04:13:26.559Z,-5.00
2018-03-21T04:15:54.013Z,-5.20
2018-03-21T04:18:22.227Z,-5.30
2018-03-21T04:20:49.668Z,-5.30
2018-03-21T04:23:17.178Z,-5.30
2018-03-21T04:25:44.591Z,-5.30
2018-03-21T04:28:12.039Z,-5.30
2018-03-21T04:30:39.475Z,-5.30
2018-03-21T04:33:06.912Z,-5.20
2018-03-21T04:35:35.139Z,-5.00
2018-03-21T04:38:02.593Z,-5.00
2018-03-21T04:40:30.041Z,-4.90
2018-03-21T04:42:57.487Z,-4.80
2018-03-21T04:45:24.951Z,-4.90
2018-03-21T04:47:52.388Z,-5.00
2018-03-21T04:50:20.602Z,-4.90
2018-03-21T04:52:48.047Z,-5.00
2018-03-21T04:55:15.498Z,-5.00
2018-03-21T04:57:42.955Z,-5.00
2018-03-21T05:00:10.392Z,-4.90
2018-03-21T05:02:37.836Z,-5.00
2018-03-21T05:05:06.063Z,-5.10
2018-03-21T05:07:34.144Z,-5.10
2018-03-21T05:10:01.588Z,-5.10
2018-03-21T05:12:29.024Z,-5.10
2018-03-21T05:14:56.458Z,-5.10
2018-03-21T05:17:24.672Z,-5.30
2018-03-21T05:19:52.144Z,-5.30
2018-03-21T05:22:19.588Z,-5.30
2018-03-21T05:24:47.021Z,-5.30
2018-03-21T05:27:14.469Z,-5.20
2018-03-21T05:29:41.921Z,-5.20
2018-03-21T05:32:10.131Z,-5.20
2018-03-21T05:34:37.603Z,-5.30
2018-03-21T05:37:05.055Z,-5.30
2018-03-21T05:39:32.501Z,-5.30
2018-03-21T05:41:59.944Z,-5.30
2018-03-21T05:44:27.399Z,-5.40
2018-03-21T05:46:54.860Z,-5.30
2018-03-21T05:49:22.291Z,-5.20
2018-03-21T05:51:50.516Z,-5.10
2018-03-21T05:54:17.958Z,-5.10
2018-03-21T05:56:45.406Z,-5.20
2018-03-21T05:59:12.848Z,-5.10
2018-03-21T06:01:40.297Z,-4.80
2018-03-21T06:04:08.636Z,-4.00
2018-03-21T06:06:36.078Z,-3.20
2018-03-21T06:09:03.876Z,-2.90
2018-03-21T06:11:32.091Z,-2.00
2018-03-21T06:13:59.548Z,-2.00
2018-03-21T06:16:26.991Z,-1.50
2018-03-21T06:18:54.452Z,-0.70
2018-03-21T06:21:21.886Z,0.10
2018-03-21T06:23:50.090Z,1.80
2018-03-21T06:26:17.552Z,1.80
2018-03-21T06:28:45.005Z,2.20
2018-03-21T06:31:12.440Z,2.60
2018-03-21T06:33:39.892Z,2.80
2018-03-21T06:36:08.092Z,3.70
2018-03-21T06:38:35.527Z,3.70
2018-03-21T06:41:03.738Z,5.00
2018-03-21T06:43:31.183Z,5.00
2018-03-21T06:45:58.612Z,5.90
2018-03-21T06:48:26.827Z,7.20
2018-03-21T06:50:54.259Z,7.20
2018-03-21T06:53:21.700Z,7.50
2018-03-21T06:55:49.155Z,7.90
2018-03-21T06:58:17.359Z,8.20
2018-03-21T07:00:44.811Z,8.10
2018-03-21T07:03:12.251Z,8.20
2018-03-21T07:05:39.692Z,8.50
2018-03-21T07:08:07.908Z,9.10
2018-03-21T07:10:35.361Z,9.10
2018-03-21T07:13:02.795Z,9.60
2018-03-21T07:15:42.084Z,9.80
2018-03-21T07:18:09.538Z,9.80
2018-03-21T07:20:36.990Z,10.00
2018-03-21T07:23:04.436Z,10.30
2018-03-21T07:25:31.883Z,10.60
2018-03-21T07:27:59.342Z,11.20
2018-03-21T07:30:26.825Z,11.20
2018-03-21T07:32:55.781Z,12.20
2018-03-21T07:35:23.223Z,12.20
2018-03-21T07:37:50.728Z,12.70
2018-03-21T07:40:18.176Z,12.80
2018-03-21T07:42:45.622Z,12.90
2018-03-21T07:45:13.066Z,13.30
2018-03-21T07:47:40.513Z,13.70
2018-03-21T07:50:07.955Z,13.90
2018-03-21T07:52:36.163Z,14.30
2018-03-21T07:55:03.615Z,14.30
2018-03-21T07:57:31.073Z,14.60
2018-03-21T07:59:58.523Z,14.80
2018-03-21T08:02:25.964Z,14.80
2018-03-21T08:04:53.404Z,15.10
2018-03-21T08:07:21.616Z,14.40
2018-03-21T08:09:49.072Z,14.40
2018-03-21T08:12:16.538Z,14.10
2018-03-21T08:14:43.969Z,13.10
2018-03-21T08:17:11.411Z,13.10
2018-03-21T08:19:39.655Z,13.30
2018-03-21T08:22:07.056Z,13.30
2018-03-21T08:24:34.504Z,14.10
2018-03-21T08:27:01.944Z,14.40
2018-03-21T08:29:30.171Z,14.20
2018-03-21T08:31:57.674Z,14.20
2018-03-21T08:34:25.142Z,14.70
2018-03-21T08:36:52.539Z,15.20
2018-03-21T08:39:19.986Z,15.20
2018-03-21T08:41:47.427Z,15.50
2018-03-21T08:44:14.882Z,16.00
2018-03-21T08:46:43.087Z,15.30
2018-03-21T08:49:10.617Z,15.30
2018-03-21T08:51:38.079Z,15.00
2018-03-21T08:54:05.519Z,15.30
2018-03-21T08:56:33.744Z,15.70
2018-03-21T08:59:01.188Z,15.70
2018-03-21T09:01:28.703Z,16.60
2018-03-21T09:03:56.096Z,17.10
2018-03-21T09:06:23.542Z,17.00
2018-03-21T09:08:50.983Z,17.40
2018-03-21T09:11:18.419Z,17.50
2018-03-21T09:13:46.634Z,17.30
2018-03-21T09:16:14.079Z,17.20
2018-03-21T09:18:41.528Z,16.60
2018-03-21T09:21:08.974Z,15.70
2018-03-21T09:23:37.205Z,14.60
2018-03-21T09:26:04.666Z,14.60
2018-03-21T09:28:32.100Z,15.10
2018-03-21T09:30:59.555Z,15.40
2018-03-21T09:33:26.999Z,15.50
2018-03-21T09:35:54.443Z,14.60
2018-03-21T09:38:21.884Z,13.50
2018-03-21T09:40:50.111Z,13.90
2018-03-21T09:43:17.553Z,13.90
2018-03-21T09:45:44.995Z,14.00
2018-03-21T09:48:12.451Z,13.20
2018-03-21T09:50:39.899Z,13.30
2018-03-21T09:53:07.339Z,13.10
2018-03-21T09:55:35.553Z,13.20
2018-03-21T09:58:03.012Z,13.20
2018-03-21T10:00:30.447Z,13.80
2018-03-21T10:02:57.911Z,13.70
2018-03-21T10:05:25.352Z,13.00
2018-03-21T10:07:53.567Z,13.50
2018-03-21T10:10:21.950Z,13.40
2018-03-21T10:12:49.391Z,13.60
2018-03-21T10:15:16.847Z,13.20
2018-03-21T10:17:44.299Z,13.60
2018-03-21T10:20:11.756Z,14.50
2018-03-21T10:22:39.196Z,15.80
2018-03-21T10:25:07.403Z,14.50
2018-03-21T10:27:34.869Z,14.50
2018-03-21T10:30:02.308Z,14.50
2018-03-21T10:32:29.770Z,15.40
2018-03-21T10:34:57.223Z,16.50
2018-03-21T10:37:24.676Z,17.10
2018-03-21T10:39:52.115Z,17.40
2018-03-21T10:42:19.564Z,17.80
2018-03-21T10:44:47.787Z,16.60
2018-03-21T10:47:15.236Z,16.60
2018-03-21T10:49:42.679Z,15.90
2018-03-21T10:52:10.122Z,14.70
2018-03-21T10:54:37.574Z,13.40
2018-03-21T10:57:05.015Z,11.90
2018-03-21T10:59:33.235Z,12.20
2018-03-21T11:02:06.437Z,12.20
2018-03-21T11:04:33.783Z,12.90
2018-03-21T11:07:01.237Z,13.00
2018-03-21T11:09:28.670Z,13.20
2018-03-21T11:11:56.122Z,13.90
2018-03-21T11:14:23.600Z,14.20
2018-03-21T11:16:51.088Z,14.20
2018-03-21T11:19:18.545Z,13.40
2018-03-21T11:21:45.988Z,13.10
2018-03-21T11:24:13.449Z,13.10
2018-03-21T11:26:40.885Z,13.90
2018-03-21T11:29:08.350Z,13.70
2018-03-21T11:31:35.789Z,13.70
2018-03-21T11:34:03.292Z,13.80
2018-03-21T11:36:30.704Z,13.90
2018-03-21T11:38:58.145Z,14.00
2018-03-21T11:41:26.351Z,14.30
2018-03-21T11:43:53.802Z,14.30
2018-03-21T11:46:21.254Z,13.80
2018-03-21T11:48:48.716Z,13.40
2018-03-21T11:51:16.182Z,13.80
2018-03-21T11:53:43.625Z,14.00
2018-03-21T11:56:11.068Z,14.20
2018-03-21T11:58:38.507Z,13.00
2018-03-21T12:01:06.723Z,11.50
2018-03-21T12:03:34.172Z,11.50
2018-03-21T12:06:01.624Z,11.20
2018-03-21T12:08:29.078Z,11.70
2018-03-21T12:10:56.528Z,12.50
2018-03-21T12:13:23.971Z,12.50
2018-03-21T12:15:52.179Z,13.00
2018-03-21T12:18:19.629Z,13.00
2018-03-21T12:20:47.082Z,12.70
2018-03-21T12:23:14.529Z,13.20
2018-03-21T12:25:41.973Z,14.00
2018-03-21T12:28:10.192Z,14.60
2018-03-21T12:30:37.644Z,14.50
2018-03-21T12:33:05.094Z,14.40
2018-03-21T12:35:32.531Z,14.80
2018-03-21T12:37:59.979Z,15.00
2018-03-21T12:40:27.420Z,14.50
2018-03-21T12:42:55.651Z,13.60
2018-03-21T12:45:23.975Z,13.60
2018-03-21T12:47:52.183Z,13.80
2018-03-21T12:50:19.646Z,13.80
2018-03-21T12:52:47.084Z,13.30
2018-03-21T12:55:14.527Z,13.80
2018-03-21T12:57:41.979Z,14.10
2018-03-21T13:00:10.203Z,15.00
2018-03-21T13:02:37.676Z,15.00
2018-03-21T13:05:05.127Z,15.30
2018-03-21T13:07:32.573Z,15.30
2018-03-21T13:10:00.955Z,15.30
2018-03-21T13:12:28.403Z,15.10
2018-03-21T13:14:55.863Z,14.50
2018-03-21T13:17:23.304Z,13.70
2018-03-21T13:19:50.744Z,13.10
2018-03-21T13:22:18.202Z,13.30
2018-03-21T13:24:45.651Z,14.00
2018-03-21T13:27:13.860Z,14.30
2018-03-21T13:29:41.305Z,14.30
2018-03-21T13:32:08.751Z,13.80
2018-03-21T13:34:36.206Z,12.90
2018-03-21T13:37:03.644Z,13.40
2018-03-21T13:39:31.850Z,15.10
2018-03-21T13:41:59.290Z,15.10
2018-03-21T13:44:26.735Z,16.50
2018-03-21T13:46:54.952Z,18.60
2018-03-21T13:49:22.396Z,18.60
2018-03-21T13:51:49.836Z,18.50
2018-03-21T13:54:17.283Z,18.30
2018-03-21T13:56:45.504Z,18.70
2018-03-21T13:59:12.960Z,18.60
2018-03-21T14:01:40.408Z,18.60
2018-03-21T14:04:07.852Z,18.90
2018-03-21T14:06:35.312Z,18.80
2018-03-21T14:09:02.762Z,18.60
2018-03-21T14:11:30.223Z,19.10
2018-03-21T14:13:57.660Z,19.60
2018-03-21T14:16:25.101Z,19.70
2018-03-21T14:18:53.311Z,20.20
2018-03-21T14:21:20.755Z,20.10
2018-03-21T14:23:48.238Z,20.20
2018-03-21T14:26:15.665Z,20.20
2018-03-21T14:28:43.175Z,19.80
2018-03-21T14:31:10.883Z,19.50
2018-03-21T14:33:38.375Z,19.60
2018-03-21T14:36:05.817Z,19.00
2018-03-21T14:38:33.261Z,18.60
2018-03-21T14:41:00.708Z,18.50
2018-03-21T14:43:28.914Z,18.30
2018-03-21T14:45:56.368Z,18.30
2018-03-21T14:48:23.805Z,18.30
2018-03-21T14:50:51.243Z,18.20
2018-03-21T14:53:19.465Z,18.40
2018-03-21T14:55:46.920Z,18.40
2018-03-21T14:58:14.406Z,18.50
2018-03-21T15:00:41.864Z,18.50
2018-03-21T15:03:09.313Z,18.40
2018-03-21T15:05:36.758Z,17.90
2018-03-21T15:08:04.203Z,16.90
2018-03-21T15:10:31.647Z,16.70
2018-03-21T15:12:59.127Z,17.00
2018-03-21T15:15:26.566Z,16.90
2018-03-21T15:17:54.014Z,16.00
2018-03-21T15:20:21.463Z,15.80
2018-03-21T15:22:48.903Z,15.90
2018-03-21T15:25:16.348Z,16.00
2018-03-21T15:27:44.563Z,13.90
2018-03-21T15:30:11.999Z,13.90
2018-03-21T15:32:39.460Z,13.80
2018-03-21T15:35:06.899Z,14.00
2018-03-21T15:37:35.118Z,14.70
2018-03-21T15:40:02.561Z,14.70
2018-03-21T15:42:29.996Z,14.50
2018-03-21T15:44:58.230Z,12.80
2018-03-21T15:47:25.671Z,12.70
2018-03-21T15:49:53.111Z,12.50
2018-03-21T15:52:20.574Z,12.40
2018-03-21T15:54:48.032Z,12.30
2018-03-21T15:57:15.471Z,12.00
2018-03-21T15:59:42.907Z,11.90
2018-03-21T16:02:11.128Z,11.30
2018-03-21T16:04:38.571Z,11.30
2018-03-21T16:07:06.040Z,10.90
2018-03-21T16:09:33.484Z,10.90
2018-03-21T16:12:00.935Z,11.00
2018-03-21T16:14:28.371Z,10.80
2018-03-21T16:16:56.603Z,10.00
2018-03-21T16:19:24.032Z,10.00
2018-03-21T16:21:51.473Z,9.50
2018-03-21T16:24:18.908Z,9.20
2018-03-21T16:26:47.115Z,8.50
2018-03-21T16:29:14.559Z,8.50
2018-03-21T16:31:42.000Z,8.30
2018-03-21T16:34:10.217Z,7.70
2018-03-21T16:36:37.659Z,7.70
2018-03-21T16:39:05.120Z,7.60
2018-03-21T16:41:32.563Z,7.30
2018-03-21T16:44:00.005Z,7.10
2018-03-21T16:46:28.227Z,7.00
2018-03-21T16:48:55.660Z,6.90
2018-03-21T16:51:23.099Z,6.90
2018-03-21T16:53:50.574Z,6.90
2018-03-21T16:56:18.009Z,6.90
2018-03-21T16:58:45.452Z,6.90
2018-03-21T17:01:13.672Z,6.50
2018-03-21T17:03:41.140Z,6.50
2018-03-21T17:06:08.570Z,6.20
2018-03-21T17:08:36.022Z,5.90
2018-03-21T17:11:03.460Z,5.70
2018-03-21T17:13:31.684Z,5.60
2018-03-21T17:15:59.137Z,5.60
2018-03-21T17:18:26.576Z,5.50
2018-03-21T17:20:54.020Z,5.40
2018-03-21T17:23:21.489Z,5.30
2018-03-21T17:25:48.920Z,5.10
2018-03-21T17:28:17.139Z,4.80
2018-03-21T17:30:44.589Z,4.80
2018-03-21T17:33:12.036Z,4.60
2018-03-21T17:35:39.481Z,4.40
2018-03-21T17:38:06.923Z,4.30
2018-03-21T17:40:34.377Z,4.10
2018-03-21T17:43:02.584Z,3.80
2018-03-21T17:45:30.045Z,3.80
2018-03-21T17:47:57.493Z,3.70
2018-03-21T17:50:24.927Z,3.60
2018-03-21T17:52:53.146Z,3.40
2018-03-21T17:55:20.595Z,3.40
2018-03-21T17:57:48.059Z,3.40
2018-03-21T18:00:15.557Z,3.30
2018-03-21T18:02:42.952Z,3.30
2018-03-21T18:05:10.394Z,3.20
2018-03-21T18:07:37.841Z,3.00
2018-03-21T18:10:06.055Z,2.90
2018-03-21T18:12:33.549Z,2.90
2018-03-21T18:15:01.000Z,2.80
2018-03-21T18:17:28.451Z,2.60
2018-03-21T18:19:55.918Z,2.50
2018-03-21T18:22:23.377Z,2.40
2018-03-21T18:24:52.326Z,2.20
2018-03-21T18:27:19.836Z,2.20
2018-03-21T18:29:47.286Z,2.20
2018-03-21T18:32:14.814Z,2.10
2018-03-21T18:34:42.265Z,2.10
2018-03-21T18:37:09.724Z,2.10
2018-03-21T18:39:37.171Z,2.00
2018-03-21T18:42:04.644Z,2.00
2018-03-21T18:44:32.153Z,1.90
2018-03-21T18:46:59.585Z,1.80
2018-03-21T18:49:27.020Z,1.70
2018-03-21T18:51:54.470Z,1.50
2018-03-21T18:54:21.924Z,1.50
2018-03-21T18:56:49.435Z,1.40
2018-03-21T18:59:16.850Z,1.30
2018-03-21T19:01:44.315Z,1.30
2018-03-21T19:04:11.766Z,1.20
2018-03-21T19:06:39.215Z,1.10
2018-03-21T19:09:06.645Z,1.00
2018-03-21T19:11:34.163Z,0.90
2018-03-21T19:14:01.596Z,0.80
2018-03-21T19:16:29.067Z,0.80
2018-03-21T19:18:56.754Z,0.80
2018-03-21T19:21:24.960Z,0.80
2018-03-21T19:23:52.431Z,0.70
2018-03-21T19:26:19.909Z,0.70
2018-03-21T19:28:47.360Z,0.70
2018-03-21T19:31:14.816Z,0.80
2018-03-21T19:33:42.367Z,0.80
2018-03-21T19:36:09.817Z,0.80
2018-03-21T19:38:37.312Z,0.90
2018-03-21T19:41:04.815Z,0.80
2018-03-21T19:43:32.305Z,0.80
2018-03-21T19:45:59.779Z,0.80
2018-03-21T19:48:27.882Z,0.70
2018-03-21T19:50:56.183Z,0.80
2018-03-21T19:53:23.672Z,0.70
2018-03-21T19:55:51.182Z,0.70
2018-03-21T19:58:18.633Z,0.70
2018-03-21T20:00:46.140Z,0.60
2018-03-21T20:03:13.584Z,0.50
2018-03-21T20:05:41.106Z,0.40
2018-03-21T20:08:08.483Z,0.30
2018-03-21T20:10:35.944Z,0.20
2018-03-21T20:13:03.464Z,0.10
2018-03-21T20:15:31.718Z,-0.20
2018-03-21T20:17:59.155Z,-0.20
2018-03-21T20:20:26.635Z,-0.30
2018-03-21T20:22:54.099Z,-0.30
2018-03-21T20:25:21.570Z,-0.30
2018-03-21T20:27:49.779Z,-0.20
2018-03-21T20:30:17.282Z,-0.20
2018-03-21T20:32:44.689Z,-0.20
2018-03-21T20:35:12.151Z,-0.10
2018-03-21T20:37:39.607Z,-0.10
2018-03-21T20:40:07.084Z,0.00
2018-03-21T20:42:34.549Z,0.00
2018-03-21T20:45:02.006Z,0.00
2018-03-21T20:47:29.458Z,-0.10
2018-03-21T20:49:56.927Z,-0.10
2018-03-21T20:52:24.369Z,0.00
2018-03-21T20:54:51.972Z,0.00
2018-03-21T20:57:20.176Z,0.20
2018-03-21T20:59:47.652Z,0.20
2018-03-21T21:02:15.107Z,0.20
2018-03-21T21:04:42.563Z,0.30
2018-03-21T21:07:10.033Z,0.20
2018-03-21T21:09:37.488Z,0.30
2018-03-21T21:12:04.951Z,0.30
2018-03-21T21:14:33.195Z,0.30
2018-03-21T21:17:00.654Z,0.20
2018-03-21T21:19:28.108Z,0.20
2018-03-21T21:21:55.552Z,0.10
2018-03-21T21:24:22.998Z,0.20
2018-03-21T21:26:51.213Z,0.10
2018-03-21T21:29:18.667Z,0.10
2018-03-21T21:31:46.115Z,0.10
2018-03-21T21:34:13.567Z,0.10
2018-03-21T21:36:41.024Z,0.10
2018-03-21T21:39:08.467Z,0.00
2018-03-21T21:41:35.916Z,0.00
2018-03-21T21:44:04.132Z,-0.20
2018-03-21T21:46:31.587Z,-0.20
2018-03-21T21:48:59.051Z,-0.10
2018-03-21T21:51:26.520Z,-0.10
2018-03-21T21:53:53.976Z,0.00
2018-03-21T21:56:22.195Z,0.30
2018-03-21T21:58:49.664Z,0.30
2018-03-21T22:01:17.111Z,0.40
2018-03-21T22:03:44.551Z,0.40
2018-03-21T22:06:12.801Z,0.20
2018-03-21T22:08:40.255Z,0.20
2018-03-21T22:11:07.707Z,0.20
2018-03-21T22:13:35.152Z,0.30
2018-03-21T22:16:02.632Z,0.30
2018-03-21T22:18:30.078Z,0.30
2018-03-21T22:20:57.514Z,0.20
2018-03-21T22:23:24.963Z,0.30
2018-03-21T22:25:52.403Z,0.20
2018-03-21T22:28:19.863Z,0.20
2018-03-21T22:30:47.310Z,0.10
2018-03-21T22:33:15.516Z,0.20
2018-03-21T22:35:42.979Z,0.20
2018-03-21T22:38:10.423Z,0.30
2018-03-21T22:40:37.863Z,0.20
2018-03-21T22:43:05.342Z,0.20
2018-03-21T22:45:32.786Z,0.20
2018-03-21T22:48:00.250Z,0.20
2018-03-21T22:50:27.690Z,0.30
2018-03-21T22:52:55.130Z,0.30
2018-03-21T22:55:23.343Z,0.30
2018-03-21T22:57:50.802Z,0.30
2018-03-21T23:00:18.246Z,0.40
2018-03-21T23:02:45.704Z,0.40
2018-03-21T23:05:13.166Z,0.40
2018-03-21T23:07:40.606Z,0.30
2018-03-21T23:10:08.059Z,0.40
2018-03-21T23:12:35.495Z,0.50
2018-03-21T23:15:03.711Z,0.30
2018-03-21T23:17:31.164Z,0.30
2018-03-21T23:19:58.627Z,0.20
2018-03-21T23:22:26.079Z,0.10
2018-03-21T23:24:53.575Z,0.00
2018-03-21T23:27:21.007Z,-0.10
2018-03-21T23:29:48.456Z,-0.10
2018-03-21T23:32:15.968Z,-0.20
2018-03-21T23:34:43.368Z,-0.30
2018-03-21T23:37:10.819Z,-0.40
2018-03-21T23:39:38.291Z,-0.40
2018-03-21T23:42:07.107Z,-0.50
2018-03-21T23:44:34.614Z,-0.60
2018-03-21T23:47:02.071Z,-0.70
2018-03-21T23:49:29.515Z,-0.70
2018-03-21T23:51:57.040Z,-0.60
2018-03-21T23:54:24.498Z,-0.70
2018-03-21T23:56:52.069Z,-0.70
2018-03-21T23:59:20.292Z,-0.80
